createdAt,value
2019-05-20T00:01:08.180Z,12.50
2019-05-20T00:03:35.571Z,12.40
2019-05-20T00:06:02.989Z,12.50
2019-05-20T00:08:30.205Z,12.60
2019-05-20T00:10:57.489Z,12.50
2019-05-20T00:13:24.851Z,12.40
2019-05-20T00:15:52.163Z,12.20
2019-05-20T00:18:19.506Z,12.10
2019-05-20T00:20:46.633Z,12.10
2019-05-20T00:23:13.914Z,12.20
2019-05-20T00:25:41.328Z,12.20
2019-05-20T00:28:08.578Z,12.10
2019-05-20T00:30:36.008Z,12.00
2019-05-20T00:33:03.421Z,11.90
2019-05-20T00:35:30.859Z,11.80
2019-05-20T00:38:00.261Z,11.70
2019-05-20T00:40:27.520Z,11.50
2019-05-20T00:42:54.692Z,11.60
2019-05-20T00:45:22.059Z,11.60
2019-05-20T00:47:49.211Z,11.60
2019-05-20T00:50:16.786Z,11.70
2019-05-20T00:52:44.258Z,11.60
2019-05-20T00:55:27.875Z,11.50
2019-05-20T00:57:55.226Z,11.40
2019-05-20T01:00:23.406Z,11.30
2019-05-20T01:02:56.773Z,11.30
2019-05-20T01:05:20.197Z,11.30
2019-05-20T01:07:47.795Z,11.40
2019-05-20T01:10:15.766Z,11.50
2019-05-20T01:12:43.151Z,11.50
2019-05-20T01:15:10.980Z,11.40
2019-05-20T01:17:38.290Z,11.40
2019-05-20T01:20:06.415Z,11.30
2019-05-20T01:22:36.991Z,11.30
2019-05-20T01:25:04.785Z,11.20
2019-05-20T01:27:33.089Z,11.30
2019-05-20T01:30:00.463Z,11.20
2019-05-20T01:32:27.720Z,11.20
2019-05-20T01:34:55.089Z,11.10
2019-05-20T01:37:22.402Z,11.10
2019-05-20T01:39:49.660Z,11.00
2019-05-20T01:42:16.923Z,10.90
2019-05-20T01:44:44.319Z,11.00
2019-05-20T01:47:16.537Z,11.00
2019-05-20T01:49:44.493Z,11.20
2019-05-20T01:52:12.613Z,11.10
2019-05-20T01:54:43.458Z,11.10
2019-05-20T01:57:10.661Z,11.10
2019-05-20T01:59:37.861Z,11.00
2019-05-20T02:02:05.217Z,10.90
2019-05-20T02:04:33.380Z,10.90
2019-05-20T02:07:02.248Z,10.90
2019-05-20T02:09:30.650Z,11.20
2019-05-20T02:11:58.034Z,11.30
2019-05-20T02:14:28.001Z,11.10
2019-05-20T02:16:56.018Z,11.00
2019-05-20T02:19:23.879Z,11.30
2019-05-20T02:21:52.508Z,11.30
2019-05-20T02:24:20.590Z,11.20
2019-05-20T02:26:47.860Z,11.10
2019-05-20T02:29:15.028Z,11.00
2019-05-20T02:31:42.208Z,11.00
2019-05-20T02:34:09.567Z,10.90
2019-05-20T02:36:36.843Z,10.90
2019-05-20T02:39:05.370Z,11.00
2019-05-20T02:41:32.846Z,10.90
2019-05-20T02:44:00.326Z,10.80
2019-05-20T02:46:27.597Z,11.00
2019-05-20T02:48:54.834Z,11.20
2019-05-20T02:51:32.254Z,11.20
2019-05-20T02:54:03.526Z,11.20
2019-05-20T02:56:32.104Z,11.20
2019-05-20T02:59:04.290Z,11.00
2019-05-20T03:01:34.008Z,11.00
2019-05-20T03:04:11.524Z,10.90
2019-05-20T03:06:33.027Z,10.80
2019-05-20T03:09:00.490Z,10.80
2019-05-20T03:11:27.748Z,10.70
2019-05-20T03:13:55.036Z,10.70
2019-05-20T03:16:22.188Z,10.50
2019-05-20T03:18:49.604Z,10.60
2019-05-20T03:21:16.829Z,10.50
2019-05-20T03:23:44.085Z,10.50
2019-05-20T03:26:11.484Z,10.60
2019-05-20T03:28:43.099Z,10.60
2019-05-20T03:31:10.569Z,10.50
2019-05-20T03:33:37.829Z,10.50
2019-05-20T03:36:05.461Z,10.70
2019-05-20T03:38:32.803Z,10.90
2019-05-20T03:41:00.077Z,10.90
2019-05-20T03:43:27.378Z,11.00
2019-05-20T03:45:54.806Z,11.00
2019-05-20T03:48:22.170Z,10.90
2019-05-20T03:50:49.633Z,10.90
2019-05-20T03:53:17.137Z,10.80
2019-05-20T03:55:44.321Z,10.90
2019-05-20T03:58:13.677Z,11.00
2019-05-20T04:00:43.804Z,11.00
2019-05-20T04:03:11.909Z,11.10
2019-05-20T04:05:39.815Z,11.00
2019-05-20T04:08:07.303Z,11.10
2019-05-20T04:10:34.555Z,11.20
2019-05-20T04:13:01.962Z,11.20
2019-05-20T04:15:29.429Z,11.20
2019-05-20T04:17:56.800Z,11.20
2019-05-20T04:20:24.155Z,11.20
2019-05-20T04:22:51.524Z,11.40
2019-05-20T04:25:18.901Z,11.40
2019-05-20T04:27:46.343Z,11.40
2019-05-20T04:30:18.691Z,11.60
2019-05-20T04:32:44.138Z,11.60
2019-05-20T04:35:21.974Z,11.70
2019-05-20T04:37:40.866Z,11.80
2019-05-20T04:40:09.133Z,11.90
2019-05-20T04:42:36.739Z,12.00
2019-05-20T04:45:06.413Z,12.10
2019-05-20T04:47:33.599Z,12.30
2019-05-20T04:50:00.838Z,12.40
2019-05-20T04:52:28.107Z,12.60
2019-05-20T04:54:55.399Z,12.80
2019-05-20T04:57:22.663Z,13.00
2019-05-20T04:59:50.009Z,13.10
2019-05-20T05:02:17.233Z,13.20
2019-05-20T05:04:44.478Z,13.40
2019-05-20T05:07:11.962Z,13.50
2019-05-20T05:09:39.345Z,13.60
2019-05-20T05:12:06.592Z,13.70
2019-05-20T05:14:34.054Z,13.80
2019-05-20T05:17:01.429Z,13.90
2019-05-20T05:19:29.101Z,14.00
2019-05-20T05:21:56.458Z,14.10
2019-05-20T05:24:23.908Z,14.20
2019-05-20T05:26:51.481Z,14.20
2019-05-20T05:29:18.992Z,14.30
2019-05-20T05:31:46.458Z,14.50
2019-05-20T05:34:13.954Z,14.60
2019-05-20T05:36:41.427Z,14.70
2019-05-20T05:39:08.850Z,14.80
2019-05-20T05:41:36.157Z,14.90
2019-05-20T05:44:03.695Z,15.00
2019-05-20T05:46:30.856Z,15.10
2019-05-20T05:48:58.103Z,15.40
2019-05-20T05:51:25.573Z,15.50
2019-05-20T05:53:52.873Z,15.60
2019-05-20T05:56:20.129Z,15.90
2019-05-20T05:58:50.788Z,15.90
2019-05-20T06:01:18.252Z,15.80
2019-05-20T06:03:45.771Z,15.80
2019-05-20T06:06:13.707Z,16.00
2019-05-20T06:08:41.098Z,16.30
2019-05-20T06:11:08.487Z,16.50
2019-05-20T06:13:35.888Z,16.70
2019-05-20T06:16:03.360Z,16.60
2019-05-20T06:18:30.530Z,16.60
2019-05-20T06:20:57.919Z,16.70
2019-05-20T06:23:25.330Z,17.20
2019-05-20T06:25:52.613Z,17.30
2019-05-20T06:28:20.057Z,17.10
2019-05-20T06:30:47.812Z,16.90
2019-05-20T06:33:15.173Z,17.10
2019-05-20T06:35:42.871Z,17.00
2019-05-20T06:38:32.924Z,17.30
2019-05-20T06:41:00.328Z,17.40
2019-05-20T06:43:28.063Z,17.60
2019-05-20T06:45:55.499Z,17.40
2019-05-20T06:48:22.904Z,17.30
2019-05-20T06:50:57.541Z,16.90
2019-05-20T06:53:24.964Z,17.20
2019-05-20T06:55:52.370Z,17.10
2019-05-20T06:58:19.653Z,17.00
2019-05-20T07:00:47.142Z,17.30
2019-05-20T07:03:14.523Z,17.40
2019-05-20T07:05:41.817Z,17.30
2019-05-20T07:08:09.323Z,17.70
2019-05-20T07:10:36.791Z,17.90
2019-05-20T07:13:04.415Z,18.00
2019-05-20T07:15:31.864Z,18.20
2019-05-20T07:17:59.495Z,18.20
2019-05-20T07:20:26.646Z,18.50
2019-05-20T07:22:56.238Z,18.80
2019-05-20T07:25:23.978Z,18.70
2019-05-20T07:27:51.820Z,18.70
2019-05-20T07:30:19.395Z,18.70
2019-05-20T07:32:46.566Z,18.30
2019-05-20T07:35:28.783Z,18.60
2019-05-20T07:37:43.340Z,18.90
2019-05-20T07:40:12.569Z,18.90
2019-05-20T07:42:40.047Z,18.80
2019-05-20T07:45:08.166Z,18.80
2019-05-20T07:47:35.771Z,18.20
2019-05-20T07:50:03.675Z,18.50
2019-05-20T07:52:31.255Z,18.70
2019-05-20T07:54:59.637Z,19.00
2019-05-20T07:57:33.405Z,19.50
2019-05-20T08:00:01.066Z,19.40
2019-05-20T08:02:29.242Z,19.40
2019-05-20T08:04:56.633Z,19.70
2019-05-20T08:07:27.857Z,20.00
2019-05-20T08:09:53.330Z,20.50
2019-05-20T08:12:20.821Z,20.50
2019-05-20T08:14:51.179Z,20.60
2019-05-20T08:17:19.774Z,20.70
2019-05-20T08:19:47.342Z,21.70
2019-05-20T08:22:14.838Z,22.10
2019-05-20T08:24:42.563Z,21.80
2019-05-20T08:27:10.286Z,22.60
2019-05-20T08:29:37.919Z,23.10
2019-05-20T08:32:08.189Z,22.80
2019-05-20T08:34:36.310Z,23.10
2019-05-20T08:37:04.451Z,23.40
2019-05-20T08:39:31.757Z,23.10
2019-05-20T08:42:00.389Z,23.50
2019-05-20T08:44:27.672Z,23.40
2019-05-20T08:46:55.016Z,23.10
2019-05-20T08:49:22.675Z,23.00
2019-05-20T08:51:50.104Z,23.10
2019-05-20T08:54:17.654Z,23.40
2019-05-20T08:56:44.852Z,23.60
2019-05-20T08:59:12.307Z,23.60
2019-05-20T09:01:39.774Z,24.10
2019-05-20T09:04:07.230Z,23.80
2019-05-20T09:06:34.585Z,23.40
2019-05-20T09:09:04.614Z,24.00
2019-05-20T09:11:32.027Z,23.60
2019-05-20T09:13:59.209Z,23.80
2019-05-20T09:16:26.706Z,23.70
2019-05-20T09:18:54.245Z,24.00
2019-05-20T09:21:21.656Z,23.70
2019-05-20T09:23:49.213Z,23.40
2019-05-20T09:26:16.705Z,23.50
2019-05-20T09:28:44.073Z,23.50
2019-05-20T09:31:12.377Z,24.00
2019-05-20T09:33:40.216Z,24.00
2019-05-20T09:36:07.658Z,24.10
2019-05-20T09:38:37.131Z,24.00
2019-05-20T09:41:04.498Z,23.20
2019-05-20T09:43:32.164Z,23.50
2019-05-20T09:46:07.840Z,24.30
2019-05-20T09:48:28.793Z,24.30
2019-05-20T09:50:56.159Z,24.00
2019-05-20T09:53:23.413Z,24.30
2019-05-20T09:55:50.752Z,23.90
2019-05-20T09:58:18.214Z,24.20
2019-05-20T10:00:48.373Z,23.90
2019-05-20T10:03:15.791Z,23.90
2019-05-20T10:05:43.954Z,23.90
2019-05-20T10:08:14.109Z,23.80
2019-05-20T10:10:44.257Z,22.60
2019-05-20T10:13:11.708Z,22.60
2019-05-20T10:15:39.464Z,23.00
2019-05-20T10:18:06.978Z,22.70
2019-05-20T10:20:34.449Z,22.30
2019-05-20T10:23:01.937Z,22.30
2019-05-20T10:25:29.484Z,21.90
2019-05-20T10:27:57.834Z,21.20
2019-05-20T10:30:27.694Z,19.70
2019-05-20T10:32:55.106Z,19.40
2019-05-20T10:35:22.707Z,19.90
2019-05-20T10:37:50.375Z,19.60
2019-05-20T10:40:18.277Z,19.50
2019-05-20T10:42:46.170Z,19.40
2019-05-20T10:45:13.813Z,19.80
2019-05-20T10:47:41.228Z,19.90
2019-05-20T10:50:08.925Z,19.80
2019-05-20T10:52:36.370Z,19.80
2019-05-20T10:55:04.653Z,19.70
2019-05-20T10:57:32.053Z,19.60
2019-05-20T11:00:01.282Z,19.30
2019-05-20T11:02:31.217Z,19.40
2019-05-20T11:05:00.564Z,19.30
2019-05-20T11:07:28.134Z,19.50
2019-05-20T11:09:55.549Z,19.50
2019-05-20T11:12:22.938Z,19.40
2019-05-20T11:14:50.216Z,19.40
2019-05-20T11:17:17.770Z,19.90
2019-05-20T11:19:45.236Z,19.50
2019-05-20T11:22:14.363Z,19.70
2019-05-20T11:24:41.897Z,19.90
2019-05-20T11:27:09.487Z,20.30
2019-05-20T11:29:36.877Z,20.20
2019-05-20T11:32:04.386Z,20.20
2019-05-20T11:34:31.698Z,20.20
2019-05-20T11:36:59.140Z,20.30
2019-05-20T11:39:33.119Z,20.30
2019-05-20T11:41:55.754Z,20.40
2019-05-20T11:44:23.182Z,20.60
2019-05-20T11:46:50.398Z,21.00
2019-05-20T11:49:17.905Z,20.90
2019-05-20T11:51:45.534Z,21.10
2019-05-20T11:54:13.031Z,21.20
2019-05-20T11:56:40.322Z,21.40
2019-05-20T11:59:07.757Z,21.60
2019-05-20T12:01:35.569Z,21.80
2019-05-20T12:04:05.514Z,21.90
2019-05-20T12:06:33.057Z,21.60
2019-05-20T12:09:00.253Z,21.50
2019-05-20T12:11:27.724Z,21.60
2019-05-20T12:13:55.228Z,21.60
2019-05-20T12:16:22.971Z,21.60
2019-05-20T12:18:53.376Z,21.70
2019-05-20T12:21:23.090Z,21.80
2019-05-20T12:23:50.283Z,22.20
2019-05-20T12:26:17.711Z,22.30
2019-05-20T12:28:45.339Z,22.70
2019-05-20T12:31:16.942Z,23.00
2019-05-20T12:33:44.295Z,23.10
2019-05-20T12:36:12.058Z,23.30
2019-05-20T12:38:39.372Z,23.10
2019-05-20T12:41:06.864Z,22.70
2019-05-20T12:43:34.073Z,23.20
2019-05-20T12:46:01.415Z,23.40
2019-05-20T12:48:28.777Z,23.60
2019-05-20T12:50:56.054Z,23.50
2019-05-20T12:53:23.311Z,23.00
2019-05-20T12:55:50.775Z,23.20
2019-05-20T12:58:18.273Z,23.00
2019-05-20T13:00:45.941Z,22.50
2019-05-20T13:03:13.169Z,22.10
2019-05-20T13:05:40.559Z,22.10
2019-05-20T13:08:07.884Z,22.20
2019-05-20T13:10:36.951Z,22.10
2019-05-20T13:13:07.472Z,22.10
2019-05-20T13:15:35.643Z,21.70
2019-05-20T13:18:03.247Z,21.60
2019-05-20T13:20:30.661Z,21.60
2019-05-20T13:22:58.367Z,21.60
2019-05-20T13:25:25.953Z,21.70
2019-05-20T13:27:53.116Z,21.60
2019-05-20T13:30:22.945Z,21.50
2019-05-20T13:32:50.331Z,21.70
2019-05-20T13:35:18.556Z,21.70
2019-05-20T13:37:46.364Z,21.60
2019-05-20T13:40:14.209Z,21.30
2019-05-20T13:42:41.483Z,21.20
2019-05-20T13:45:22.709Z,20.40
2019-05-20T13:47:50.399Z,20.40
2019-05-20T13:50:26.115Z,20.10
2019-05-20T13:52:53.376Z,19.70
2019-05-20T13:55:20.965Z,19.60
2019-05-20T13:57:48.254Z,19.80
2019-05-20T14:00:16.050Z,19.60
2019-05-20T14:02:44.156Z,19.80
2019-05-20T14:05:16.892Z,20.00
2019-05-20T14:07:44.500Z,19.90
2019-05-20T14:10:12.517Z,19.90
2019-05-20T14:12:39.900Z,20.20
2019-05-20T14:15:15.020Z,20.00
2019-05-20T14:17:45.972Z,20.30
2019-05-20T14:20:22.105Z,20.30
2019-05-20T14:22:59.372Z,20.20
2019-05-20T14:25:29.243Z,20.10
2019-05-20T14:27:56.468Z,19.90
2019-05-20T14:30:24.152Z,19.50
2019-05-20T14:32:54.514Z,19.40
2019-05-20T14:35:21.861Z,19.40
2019-05-20T14:37:49.966Z,19.80
2019-05-20T14:40:17.680Z,19.50
2019-05-20T14:42:45.257Z,19.10
2019-05-20T14:45:12.818Z,19.30
2019-05-20T14:47:41.589Z,19.60
2019-05-20T14:50:10.467Z,19.70
2019-05-20T14:52:39.336Z,19.60
2019-05-20T14:55:14.760Z,19.30
2019-05-20T14:57:43.048Z,19.50
2019-05-20T15:00:11.604Z,19.00
2019-05-20T15:02:38.773Z,18.80
2019-05-20T15:05:07.350Z,18.60
2019-05-20T15:07:34.532Z,18.60
2019-05-20T15:10:03.365Z,18.40
2019-05-20T15:12:31.273Z,18.10
2019-05-20T15:15:02.328Z,18.30
2019-05-20T15:17:29.861Z,18.20
2019-05-20T15:19:57.225Z,17.80
2019-05-20T15:22:24.712Z,17.80
2019-05-20T15:24:52.099Z,17.70
2019-05-20T15:27:19.903Z,17.80
2019-05-20T15:29:48.251Z,17.80
2019-05-20T15:32:15.590Z,17.50
2019-05-20T15:34:42.778Z,17.30
2019-05-20T15:37:09.968Z,17.50
2019-05-20T15:39:37.275Z,17.60
2019-05-20T15:42:05.004Z,17.40
2019-05-20T15:44:32.284Z,17.60
2019-05-20T15:46:59.844Z,17.60
2019-05-20T15:49:27.398Z,17.30
2019-05-20T15:51:54.645Z,17.20
2019-05-20T15:54:22.638Z,17.30
2019-05-20T15:56:51.116Z,16.90
2019-05-20T15:59:19.071Z,16.80
2019-05-20T16:01:48.776Z,16.60
2019-05-20T16:04:16.313Z,16.50
2019-05-20T16:06:43.820Z,16.40
2019-05-20T16:09:11.600Z,16.50
2019-05-20T16:11:50.129Z,16.50
2019-05-20T16:14:17.582Z,16.40
2019-05-20T16:16:44.934Z,16.20
2019-05-20T16:19:14.124Z,16.20
2019-05-20T16:21:41.416Z,16.00
2019-05-20T16:24:08.829Z,16.10
2019-05-20T16:26:36.413Z,16.10
2019-05-20T16:29:03.834Z,16.00
2019-05-20T16:31:31.232Z,15.90
2019-05-20T16:33:59.731Z,15.90
2019-05-20T16:36:28.281Z,16.00
2019-05-20T16:38:56.429Z,15.90
2019-05-20T16:41:32.803Z,15.90
2019-05-20T16:44:01.248Z,15.80
2019-05-20T16:46:28.600Z,15.80
2019-05-20T16:48:55.873Z,15.80
2019-05-20T16:51:23.669Z,15.70
2019-05-20T16:53:50.951Z,15.60
2019-05-20T16:56:18.329Z,15.60
2019-05-20T16:58:45.660Z,15.60
2019-05-20T17:01:14.906Z,15.70
2019-05-20T17:03:42.688Z,15.70
2019-05-20T17:06:10.385Z,15.60
2019-05-20T17:08:37.709Z,15.50
2019-05-20T17:11:05.214Z,15.60
2019-05-20T17:13:32.558Z,15.50
2019-05-20T17:16:00.057Z,15.40
2019-05-20T17:18:27.639Z,15.40
2019-05-20T17:20:54.943Z,15.30
2019-05-20T17:23:22.740Z,15.20
2019-05-20T17:25:50.923Z,15.20
2019-05-20T17:28:18.623Z,15.30
2019-05-20T17:30:46.674Z,15.20
2019-05-20T17:33:14.105Z,15.20
2019-05-20T17:35:41.586Z,15.20
2019-05-20T17:38:09.067Z,15.20
2019-05-20T17:40:36.578Z,15.20
2019-05-20T17:43:04.624Z,15.20
2019-05-20T17:45:32.142Z,15.10
2019-05-20T17:47:59.645Z,15.10
2019-05-20T17:50:27.110Z,15.10
2019-05-20T17:52:54.390Z,15.10
2019-05-20T17:55:22.019Z,15.10
2019-05-20T17:57:49.332Z,15.10
2019-05-20T18:00:20.429Z,15.10
2019-05-20T18:02:47.953Z,15.10
2019-05-20T18:05:15.853Z,15.10
2019-05-20T18:07:43.353Z,15.00
2019-05-20T18:10:11.441Z,15.00
2019-05-20T18:12:38.711Z,14.90
2019-05-20T18:15:07.229Z,14.90
2019-05-20T18:17:34.731Z,14.90
2019-05-20T18:20:03.279Z,14.90
2019-05-20T18:22:30.797Z,14.90
2019-05-20T18:24:58.111Z,14.80
2019-05-20T18:27:25.652Z,14.80
2019-05-20T18:29:53.177Z,14.80
2019-05-20T18:32:20.805Z,14.70
2019-05-20T18:34:48.303Z,14.70
2019-05-20T18:37:15.690Z,14.60
2019-05-20T18:39:43.100Z,14.50
2019-05-20T18:42:11.155Z,14.60
2019-05-20T18:44:38.618Z,14.40
2019-05-20T18:47:08.833Z,14.40
2019-05-20T18:49:41.132Z,14.40
2019-05-20T18:52:07.306Z,14.30
2019-05-20T18:54:34.686Z,14.20
2019-05-20T18:57:02.088Z,14.20
2019-05-20T18:59:29.381Z,14.20
2019-05-20T19:02:05.122Z,14.10
2019-05-20T19:04:26.088Z,14.10
2019-05-20T19:07:02.208Z,14.10
2019-05-20T19:09:29.592Z,14.10
2019-05-20T19:11:56.870Z,14.00
2019-05-20T19:14:24.303Z,13.90
2019-05-20T19:16:51.747Z,14.10
2019-05-20T19:19:19.196Z,14.00
2019-05-20T19:21:46.601Z,14.00
2019-05-20T19:24:14.048Z,14.00
2019-05-20T19:26:41.478Z,13.90
2019-05-20T19:29:09.100Z,13.90
2019-05-20T19:31:37.872Z,13.90
2019-05-20T19:34:05.401Z,13.90
2019-05-20T19:36:33.689Z,13.90
2019-05-20T19:39:01.130Z,13.90
2019-05-20T19:41:28.414Z,13.80
2019-05-20T19:43:58.744Z,13.80
2019-05-20T19:46:26.275Z,13.80
2019-05-20T19:48:53.444Z,13.80
2019-05-20T19:51:21.008Z,13.80
2019-05-20T19:53:48.251Z,13.80
2019-05-20T19:56:15.553Z,13.80
2019-05-20T19:58:42.807Z,13.90
2019-05-20T20:01:10.370Z,13.80
2019-05-20T20:03:37.650Z,13.90
2019-05-20T20:06:06.979Z,13.80
2019-05-20T20:08:34.161Z,13.80
2019-05-20T20:11:01.681Z,13.90
2019-05-20T20:13:34.189Z,13.90
2019-05-20T20:16:00.606Z,13.80
2019-05-20T20:18:27.951Z,13.80
2019-05-20T20:20:55.876Z,13.70
2019-05-20T20:23:23.169Z,13.80
2019-05-20T20:25:51.077Z,13.80
2019-05-20T20:28:18.494Z,13.80
2019-05-20T20:30:52.526Z,13.80
2019-05-20T20:33:19.862Z,13.80
2019-05-20T20:35:47.146Z,13.80
2019-05-20T20:38:14.550Z,13.70
2019-05-20T20:40:42.149Z,13.70
2019-05-20T20:43:10.077Z,13.70
2019-05-20T20:45:37.608Z,13.70
2019-05-20T20:48:06.584Z,13.60
2019-05-20T20:50:33.929Z,13.60
2019-05-20T20:53:01.384Z,13.60
2019-05-20T20:55:28.909Z,13.70
2019-05-20T20:57:56.243Z,13.60
2019-05-20T21:00:23.877Z,13.60
2019-05-20T21:02:53.545Z,13.60
2019-05-20T21:05:20.714Z,13.60
2019-05-20T21:07:51.540Z,13.60
2019-05-20T21:10:17.580Z,13.60
2019-05-20T21:12:45.089Z,13.60
2019-05-20T21:15:12.939Z,13.50
2019-05-20T21:17:40.116Z,13.50
2019-05-20T21:20:08.003Z,13.50
2019-05-20T21:22:35.277Z,13.40
2019-05-20T21:25:02.985Z,13.50
2019-05-20T21:27:30.372Z,13.50
2019-05-20T21:29:57.526Z,13.50
2019-05-20T21:32:25.257Z,13.50
2019-05-20T21:34:52.897Z,13.50
2019-05-20T21:37:20.200Z,13.50
2019-05-20T21:39:51.243Z,13.50
2019-05-20T21:42:19.153Z,13.60
2019-05-20T21:44:48.118Z,13.50
2019-05-20T21:47:16.133Z,13.50
2019-05-20T21:49:44.542Z,13.50
2019-05-20T21:52:17.461Z,13.50
2019-05-20T21:54:44.764Z,13.50
2019-05-20T21:57:12.468Z,13.50
2019-05-20T21:59:40.521Z,13.40
2019-05-20T22:02:08.808Z,13.50
2019-05-20T22:04:36.579Z,13.50
2019-05-20T22:07:04.221Z,13.50
2019-05-20T22:09:31.897Z,13.60
2019-05-20T22:12:00.363Z,13.60
2019-05-20T22:14:28.168Z,13.60
2019-05-20T22:16:57.957Z,13.60
2019-05-20T22:19:27.439Z,13.50
2019-05-20T22:22:13.805Z,13.50
2019-05-20T22:24:43.913Z,13.60
2019-05-20T22:27:11.269Z,13.60
2019-05-20T22:29:39.941Z,13.50
2019-05-20T22:32:08.907Z,13.50
2019-05-20T22:34:37.674Z,13.50
2019-05-20T22:37:07.012Z,13.50
2019-05-20T22:39:35.106Z,13.50
2019-05-20T22:42:09.807Z,13.40
2019-05-20T22:44:38.516Z,13.40
2019-05-20T22:47:06.635Z,13.40
2019-05-20T22:49:34.224Z,13.40
2019-05-20T22:52:02.049Z,13.40
2019-05-20T22:54:29.340Z,13.40
2019-05-20T22:56:56.916Z,13.40
2019-05-20T22:59:24.090Z,13.40
2019-05-20T23:01:51.549Z,13.30
2019-05-20T23:04:18.988Z,13.30
2019-05-20T23:06:46.562Z,13.30
2019-05-20T23:09:14.970Z,13.30
2019-05-20T23:11:42.492Z,13.30
2019-05-20T23:14:10.168Z,13.30
2019-05-20T23:16:37.423Z,13.30
2019-05-20T23:19:04.729Z,13.20
2019-05-20T23:21:31.997Z,13.20
2019-05-20T23:23:59.519Z,13.20
2019-05-20T23:26:27.382Z,13.20
2019-05-20T23:28:54.937Z,13.20
2019-05-20T23:31:22.336Z,13.20
2019-05-20T23:33:49.870Z,13.20
2019-05-20T23:36:17.446Z,13.20
2019-05-20T23:38:45.118Z,13.20
2019-05-20T23:41:13.046Z,13.30
2019-05-20T23:43:40.210Z,13.20
2019-05-20T23:46:07.928Z,13.10
2019-05-20T23:48:35.879Z,13.20
2019-05-20T23:51:03.341Z,13.10
2019-05-20T23:53:30.909Z,13.10
2019-05-20T23:55:58.155Z,13.10
2019-05-20T23:58:25.531Z,13.10
